Portada
METAR-TAF:

METAR-TAF

Aeroports :

Najaf, Iraq

latitud: 31-59-23N, longitud: 44-24-15E, altitud: 31 m

Observació

L'informe es va fer fa 19 minuts, a les 05:00 UTC
Vent 5 kt del Oest/Sud-Oest
Temperatura 11°C
Humitat 82%
Pressió 1018 hPa
Visibilitat: 7000 m

METAR: ORNI 210500Z 25005KT 7000 NSC 11/08 Q1018 NOSIG

Hora: 08:19 (05:19 UTC)

Pronòstic

L'informe es va fer fa 7 hores i 19 minuts, a les 22:00 UTC
Pronòstic vàlid del 21 a les 00 UTC al 21 a les 24 UTC
Vent 5 kt del Oest
Visibilitat: 7000 m

TAF: ORNI 202200Z 2100/2124 27005KT 7000 NSC

Observacions i pronòstics meteorològics de més de 4000 aeroports (METAR i TAF).

Les estacions disponibles són els punts grocs i vermells al mapa.

Posi el ratolí al punt desitjat per veure el nom de l'estació.

Feu clic per veure les observacions i els pronòstics meteorològics.

Per canviar el mapa: feu clic els botons verds amb una creu de color negre per apropar; al botó verd amb un guió per allunyar la imatge; o en les fletxes verdes per a mapes adjacents.


METAR-TAF: